Time;durP1;ratioP1;P1;durP2;ratioP2;P2;SDS_P1;SDS_P2;PMS_P1;PMS_P2;Temp;Humidity;BMP_temperature;BMP_pressure;BME280_temperature;BME280_humidity;BME280_pressure;Samples;Min_cycle;Max_cycle;Signal;HPM_P1;HPM_P2
2024/04/06 00:00:12;;;;;;;2.50;2.30;;;;;;;13.21;78.26;99420.67;217316;1262;139833;-69
2024/04/06 00:05:34;;;;;;;6.40;1.80;;;;;;;13.18;78.79;99410.38;217190;1262;140103;-69
2024/04/06 00:10:37;;;;;;;1.90;1.80;;;;;;;13.13;79.46;99425.61;217307;1261;140611;-68
2024/04/06 00:15:39;;;;;;;2.70;2.20;;;;;;;13.09;80.01;99435.59;217100;1261;141413;-68
2024/04/06 00:20:43;;;;;;;3.50;2.30;;;;;;;13.07;80.66;99458.95;217355;1257;139779;-71
2024/04/06 00:25:47;;;;;;;2.90;1.80;;;;;;;13.08;80.89;99496.80;217320;1261;140687;-69
2024/04/06 00:30:50;;;;;;;3.40;1.90;;;;;;;13.09;81.35;99496.66;217491;1258;140765;-69
2024/04/06 00:35:52;;;;;;;3.00;1.60;;;;;;;13.11;81.61;99497.41;218157;1260;139955;-69
2024/04/06 00:40:55;;;;;;;4.00;2.50;;;;;;;13.12;81.75;99493.19;217465;1261;141281;-69
2024/04/06 00:45:57;;;;;;;4.00;3.60;;;;;;;13.12;82.10;99494.54;217608;1259;139958;-68
2024/04/06 00:51:05;;;;;;;5.80;1.90;;;;;;;13.13;82.50;99491.92;217446;1257;140107;-66
2024/04/06 00:56:09;;;;;;;6.10;1.80;;;;;;;13.14;82.67;99480.20;217294;1259;139644;-72
2024/04/06 01:01:13;;;;;;;4.70;2.10;;;;;;;13.12;82.63;99470.98;217926;1257;140112;-68
2024/04/06 01:06:16;;;;;;;3.60;2.00;;;;;;;13.10;82.82;99477.94;217705;1257;139854;-69
2024/04/06 01:11:19;;;;;;;2.20;1.70;;;;;;;13.08;82.81;99485.83;217520;1259;139589;-72
2024/04/06 01:16:23;;;;;;;5.00;2.70;;;;;;;13.06;82.85;99492.88;217509;1257;139847;-71
2024/04/06 01:21:26;;;;;;;2.30;2.10;;;;;;;13.05;83.12;99505.40;217232;1260;140922;-71
2024/04/06 01:26:30;;;;;;;6.00;2.50;;;;;;;13.02;82.78;99515.96;217317;1257;140555;-72
2024/04/06 01:31:33;;;;;;;3.00;1.40;;;;;;;12.93;82.84;99516.11;217433;1257;140458;-70
2024/04/06 01:36:36;;;;;;;12.60;6.80;;;;;;;12.84;82.88;99523.99;217149;1258;139697;-71
2024/04/06 01:41:42;;;;;;;7.20;3.40;;;;;;;12.75;82.82;99534.46;217506;1257;140376;-72
2024/04/06 01:46:49;;;;;;;3.70;2.20;;;;;;;12.68;82.71;99540.91;217396;1258;141076;-71
2024/04/06 01:51:52;;;;;;;1.20;1.00;;;;;;;12.60;82.67;99547.89;217290;1261;140586;-68
2024/04/06 01:56:54;;;;;;;2.20;1.30;;;;;;;12.53;82.67;99557.50;217298;1257;140704;-71
2024/04/06 02:01:57;;;;;;;2.40;1.20;;;;;;;12.40;82.65;99562.77;217360;1257;140343;-70
2024/04/06 02:06:59;;;;;;;1.30;1.30;;;;;;;12.32;82.50;99571.13;217317;1257;140565;-70
2024/04/06 02:12:03;;;;;;;1.90;1.20;;;;;;;12.26;82.65;99580.13;217453;1257;139893;-69
2024/04/06 02:17:06;;;;;;;1.60;0.90;;;;;;;12.21;82.65;99582.23;217983;1257;140121;-69
2024/04/06 02:22:09;;;;;;;1.50;0.80;;;;;;;12.17;82.76;99591.64;217876;1257;141108;-69
2024/04/06 02:27:12;;;;;;;1.20;1.10;;;;;;;12.13;82.74;99597.26;217611;1257;140641;-72
2024/04/06 02:32:16;;;;;;;3.50;1.10;;;;;;;12.09;82.76;99604.15;217171;1258;140446;-73
2024/04/06 02:37:19;;;;;;;3.80;1.80;;;;;;;12.04;82.89;99609.89;218610;1258;141886;-69
2024/04/06 02:42:22;;;;;;;1.50;1.30;;;;;;;11.99;82.69;99614.31;219378;1261;140929;-70
2024/04/06 02:47:25;;;;;;;1.70;1.60;;;;;;;11.94;82.72;99619.21;219512;1258;140460;-70
2024/04/06 02:52:28;;;;;;;1.10;1.00;;;;;;;11.90;82.81;99624.30;217841;1258;140827;-70
2024/04/06 02:57:31;;;;;;;2.40;1.60;;;;;;;11.86;82.86;99628.67;218223;1259;140679;-70
2024/04/06 03:02:34;;;;;;;1.70;1.30;;;;;;;11.80;82.63;99636.37;217346;1258;139502;-68
2024/04/06 03:07:36;;;;;;;1.00;1.00;;;;;;;11.75;82.65;99639.96;217516;1261;139951;-70
2024/04/06 03:12:39;;;;;;;4.20;2.00;;;;;;;11.70;82.80;99636.00;217135;1258;140928;-72
2024/04/06 03:17:42;;;;;;;1.50;1.10;;;;;;;11.63;82.44;99642.83;217459;1261;151732;-69
2024/04/06 03:23:01;;;;;;;1.50;1.30;;;;;;;11.54;82.37;99644.29;217213;1259;141298;-70
2024/04/06 03:28:04;;;;;;;5.40;1.30;;;;;;;11.44;82.50;99646.05;217210;1259;139773;-70
2024/04/06 03:33:06;;;;;;;3.20;1.10;;;;;;;11.37;82.51;99653.50;217412;1257;139886;-69
2024/04/06 03:38:09;;;;;;;1.40;1.30;;;;;;;11.29;82.86;99652.14;217370;1260;141202;-69
2024/04/06 03:43:13;;;;;;;1.80;1.30;;;;;;;11.21;82.97;99662.00;218064;1257;141566;-69
2024/04/06 03:48:16;;;;;;;1.70;1.60;;;;;;;11.16;83.08;99654.70;217437;1257;139951;-68
2024/04/06 03:53:38;;;;;;;2.30;2.10;;;;;;;11.10;83.14;99667.25;217587;1257;139873;-69
2024/04/06 03:58:40;;;;;;;2.20;1.50;;;;;;;11.05;83.41;99675.69;217260;1257;140090;-69
2024/04/06 04:03:43;;;;;;;2.40;1.50;;;;;;;11.03;83.42;99678.95;217326;1260;139811;-69
2024/04/06 04:08:45;;;;;;;3.50;1.40;;;;;;;11.00;83.45;99685.31;218416;1258;139989;-69
2024/04/06 04:13:49;;;;;;;1.60;1.50;;;;;;;10.97;83.46;99684.09;217543;1259;139983;-70
2024/04/06 04:18:52;;;;;;;1.80;1.70;;;;;;;10.93;83.61;99680.70;217251;1262;140805;-69
2024/04/06 04:23:55;;;;;;;3.00;2.70;;;;;;;10.95;83.78;99684.69;217326;1259;139799;-69
2024/04/06 04:28:58;;;;;;;2.20;1.20;;;;;;;11.01;83.92;99689.53;219089;1258;140682;-69
2024/04/06 04:34:00;;;;;;;1.70;1.10;;;;;;;11.07;84.15;99699.09;218625;1259;140077;-69
2024/04/06 04:39:03;;;;;;;2.30;1.50;;;;;;;11.16;84.12;99705.66;218311;1259;141401;-70
2024/04/06 04:44:07;;;;;;;1.50;1.40;;;;;;;11.28;84.22;99715.27;217821;1258;141362;-70
2024/04/06 04:49:30;;;;;;;1.90;1.80;;;;;;;11.37;84.18;99724.70;217463;1262;140973;-70
2024/04/06 04:54:32;;;;;;;1.90;1.70;;;;;;;11.40;84.61;99736.04;218065;1259;141098;-71
2024/04/06 04:59:35;;;;;;;2.50;1.90;;;;;;;11.45;84.41;99749.89;217148;1259;290191;-69
2024/04/06 05:04:37;;;;;;;5.80;3.30;;;;;;;11.49;84.60;99754.98;217419;1258;142039;-71
2024/04/06 05:09:39;;;;;;;2.40;2.30;;;;;;;11.52;84.75;99763.16;217518;1260;140651;-68
2024/04/06 05:14:43;;;;;;;5.10;2.90;;;;;;;11.58;84.93;99770.64;217378;1259;140865;-69
2024/04/06 05:19:46;;;;;;;2.40;2.20;;;;;;;11.63;85.07;99777.48;217419;1261;140024;-69
2024/04/06 05:24:48;;;;;;;2.70;2.50;;;;;;;11.65;85.07;99773.04;217411;1261;141777;-69
2024/04/06 05:29:51;;;;;;;3.70;2.70;;;;;;;11.71;85.18;99771.92;217823;1258;140112;-70
2024/04/06 05:34:53;;;;;;;14.90;5.70;;;;;;;11.76;85.23;99777.09;217812;1261;140554;-70
2024/04/06 05:39:56;;;;;;;6.30;3.70;;;;;;;11.86;85.53;99778.31;217379;1262;141029;-70
2024/04/06 05:44:58;;;;;;;3.90;3.30;;;;;;;12.00;85.51;99786.27;217357;1258;140869;-70
2024/04/06 05:50:02;;;;;;;4.10;2.90;;;;;;;12.14;85.41;99788.69;217375;1262;139949;-70
2024/04/06 05:55:06;;;;;;;3.80;3.40;;;;;;;12.30;85.57;99796.52;217231;1261;140884;-70
2024/04/06 06:00:09;;;;;;;6.00;4.20;;;;;;;12.43;85.45;99794.06;217518;1259;140773;-69
2024/04/06 06:05:13;;;;;;;7.10;3.70;;;;;;;12.59;85.39;99804.63;217756;1260;140584;-72
2024/04/06 06:10:16;;;;;;;5.40;3.60;;;;;;;12.73;85.36;99804.91;217464;1257;140888;-70
2024/04/06 06:15:18;;;;;;;4.00;3.70;;;;;;;12.87;85.21;99810.36;217235;1260;140088;-71
2024/04/06 06:20:21;;;;;;;8.10;3.40;;;;;;;13.00;85.15;99808.95;217826;1260;140645;-69
2024/04/06 06:25:24;;;;;;;6.40;3.40;;;;;;;13.20;84.90;99820.02;218521;1261;139710;-71
2024/04/06 06:30:26;;;;;;;4.20;2.90;;;;;;;13.37;84.86;99826.45;217509;1260;140907;-70
2024/04/06 06:35:29;;;;;;;3.40;3.10;;;;;;;13.58;84.49;99827.95;217754;1257;140871;-70
2024/04/06 06:40:32;;;;;;;3.50;3.20;;;;;;;13.80;84.18;99835.62;217274;1261;140134;-70
2024/04/06 06:45:37;;;;;;;4.70;3.70;;;;;;;14.02;83.92;99836.90;219413;1259;141227;-70
2024/04/06 06:50:41;;;;;;;7.00;3.40;;;;;;;14.16;83.45;99838.08;217596;1258;140573;-71
2024/04/06 06:55:43;;;;;;;5.20;3.00;;;;;;;14.26;83.37;99832.23;217415;1260;140660;-70
2024/04/06 07:00:46;;;;;;;5.20;3.20;;;;;;;14.36;83.20;99842.59;217446;1257;140928;-71
2024/04/06 07:05:49;;;;;;;4.30;3.40;;;;;;;14.48;83.04;99843.89;217701;1262;140115;-70
2024/04/06 07:10:52;;;;;;;9.30;3.10;;;;;;;14.80;82.90;99848.34;217424;1258;139781;-71
2024/04/06 07:16:06;;;;;;;3.90;2.90;;;;;;;15.38;82.65;99857.48;217508;1260;140917;-71
2024/04/06 07:21:11;;;;;;;4.90;3.30;;;;;;;15.99;81.72;99860.98;217794;1259;140571;-70
2024/04/06 07:26:14;;;;;;;3.20;2.10;;;;;;;16.79;81.60;99863.78;217573;1262;141316;-71
2024/04/06 07:31:17;;;;;;;2.30;2.10;;;;;;;17.56;80.70;99856.63;217476;1258;139596;-71
2024/04/06 07:36:20;;;;;;;3.00;2.60;;;;;;;18.07;79.26;99863.13;217303;1259;140122;-71
2024/04/06 07:41:22;;;;;;;3.50;3.00;;;;;;;18.14;77.61;99867.77;217217;1259;139894;-72
2024/04/06 07:46:24;;;;;;;4.00;2.80;;;;;;;18.20;76.88;99865.08;217280;1262;141192;-72
2024/04/06 07:51:27;;;;;;;3.00;2.30;;;;;;;18.62;76.32;99857.77;217471;1260;140244;-73
2024/04/06 07:56:29;;;;;;;4.50;2.60;;;;;;;18.88;75.32;99849.17;217441;1262;140406;-73
2024/04/06 08:01:33;;;;;;;4.00;2.20;;;;;;;19.07;74.50;99855.36;217593;1262;140394;-72
2024/04/06 08:06:36;;;;;;;2.10;1.60;;;;;;;19.07;73.59;99861.59;217297;1258;139579;-73
2024/04/06 08:11:39;;;;;;;8.90;3.00;;;;;;;18.93;72.78;99864.02;219134;1258;140034;-72
2024/04/06 08:16:42;;;;;;;5.10;1.80;;;;;;;18.73;72.45;99861.84;220030;1258;140800;-72
2024/04/06 08:21:45;;;;;;;3.20;2.00;;;;;;;18.68;72.38;99869.44;219761;1257;141185;-74
2024/04/06 08:26:48;;;;;;;8.60;2.80;;;;;;;18.53;72.01;99873.56;219171;1260;141103;-72
2024/04/06 08:31:51;;;;;;;4.30;2.40;;;;;;;18.37;71.77;99881.52;218392;1261;140459;-71
2024/04/06 08:36:53;;;;;;;2.30;2.10;;;;;;;18.08;71.42;99876.50;218176;1261;141355;-71
2024/04/06 08:41:56;;;;;;;6.20;1.80;;;;;;;17.85;71.40;99884.69;217273;1261;141283;-71
2024/04/06 08:47:01;;;;;;;6.60;2.70;;;;;;;17.75;71.72;99883.56;217056;1260;141092;-72
2024/04/06 08:52:03;;;;;;;6.90;2.00;;;;;;;17.74;71.22;99886.31;217052;1260;140092;-71
2024/04/06 08:57:06;;;;;;;1.80;1.70;;;;;;;17.77;71.02;99885.96;217572;1261;140753;-73
2024/04/06 09:02:09;;;;;;;4.10;2.20;;;;;;;17.87;70.90;99891.75;217071;1262;140473;-72
2024/04/06 09:07:11;;;;;;;3.60;2.00;;;;;;;17.99;70.76;99894.22;217076;1262;140483;-72
2024/04/06 09:12:14;;;;;;;2.40;1.80;;;;;;;18.03;70.13;99897.64;217629;1261;139911;-72
2024/04/06 09:17:21;;;;;;;4.80;2.10;;;;;;;17.89;69.37;99895.02;217117;1262;139975;-71
2024/04/06 09:22:25;;;;;;;2.60;1.60;;;;;;;17.77;69.09;99894.65;217152;1263;140620;-72
2024/04/06 09:27:27;;;;;;;5.50;2.00;;;;;;;17.82;68.93;99897.42;217537;1261;139891;-73
2024/04/06 09:32:30;;;;;;;6.40;1.90;;;;;;;17.94;68.77;99904.70;217316;1262;141224;-71
2024/04/06 09:37:35;;;;;;;3.60;1.70;;;;;;;18.04;68.38;99905.52;217284;1262;140206;-72
2024/04/06 09:42:38;;;;;;;5.70;1.60;;;;;;;18.25;68.47;99905.52;217983;1262;139966;-72
2024/04/06 09:47:43;;;;;;;6.40;2.30;;;;;;;18.51;68.12;99906.95;217266;1257;140038;-72
2024/04/06 09:52:45;;;;;;;5.80;2.20;;;;;;;18.70;67.69;99906.85;217720;1262;139866;-71
2024/04/06 09:57:47;;;;;;;3.60;2.60;;;;;;;19.05;67.63;99900.58;217499;1262;140269;-72
2024/04/06 10:02:51;;;;;;;6.70;2.60;;;;;;;19.53;67.30;99899.61;218589;1262;141159;-72
2024/04/06 10:07:54;;;;;;;4.60;3.00;;;;;;;19.82;66.77;99890.80;217539;1262;140947;-72
2024/04/06 10:12:57;;;;;;;2.70;2.20;;;;;;;20.05;65.88;99893.86;217364;1260;140985;-73
2024/04/06 10:18:01;;;;;;;3.50;2.30;;;;;;;20.09;65.18;99898.04;217481;1258;139263;-72
2024/04/06 10:23:05;;;;;;;6.70;2.50;;;;;;;20.14;64.62;99891.41;217342;1260;140281;-72
2024/04/06 10:28:10;;;;;;;11.60;2.80;;;;;;;20.15;64.06;99893.78;217539;1259;138790;-71
2024/04/06 10:33:13;;;;;;;3.80;2.50;;;;;;;20.31;64.04;99887.02;217345;1257;139439;-70
2024/04/06 10:38:16;;;;;;;7.90;3.00;;;;;;;20.40;63.41;99891.30;217699;1259;139342;-71
2024/04/06 10:43:22;;;;;;;7.40;3.20;;;;;;;20.59;63.34;99882.38;217286;1260;139101;-71
2024/04/06 10:48:25;;;;;;;6.80;3.20;;;;;;;20.66;62.89;99890.16;217413;1262;139131;-71
2024/04/06 10:53:27;;;;;;;10.00;3.20;;;;;;;20.65;62.54;99880.69;217645;1261;139855;-70
2024/04/06 10:58:30;;;;;;;8.80;3.10;;;;;;;20.83;62.32;99876.50;217181;1262;140591;-72
2024/04/06 11:03:33;;;;;;;6.50;3.50;;;;;;;21.04;62.28;99888.45;217466;1262;140574;-71
2024/04/06 11:08:36;;;;;;;7.00;3.40;;;;;;;21.24;61.95;99891.43;217732;1263;139451;-71
2024/04/06 11:13:40;;;;;;;3.90;2.20;;;;;;;21.51;61.27;99892.83;217138;1260;140944;-73
2024/04/06 11:18:43;;;;;;;4.80;2.00;;;;;;;21.78;60.21;99896.92;217314;1257;139544;-72
2024/04/06 11:23:49;;;;;;;3.10;2.50;;;;;;;21.95;59.73;99903.89;217537;1257;139874;-72
2024/04/06 11:28:51;;;;;;;7.80;2.70;;;;;;;22.07;59.12;99912.26;217318;1262;139729;-71
2024/04/06 11:33:53;;;;;;;7.30;2.80;;;;;;;21.91;58.31;99915.58;217331;1262;138906;-73
2024/04/06 11:38:56;;;;;;;10.20;2.60;;;;;;;21.74;58.14;99914.74;217284;1261;139382;-76
2024/04/06 11:43:57;;;;;;;7.60;2.40;;;;;;;21.25;58.05;99916.93;218017;1260;140360;-72
2024/04/06 11:48:59;;;;;;;5.20;2.20;;;;;;;20.95;58.12;99911.91;217271;1259;139538;-72
2024/04/06 11:54:02;;;;;;;3.90;2.60;;;;;;;20.88;58.08;99908.73;217315;1262;141256;-71
2024/04/06 11:59:07;;;;;;;1.90;1.80;;;;;;;20.79;57.99;99904.17;217187;1261;140112;-73
2024/04/06 12:04:11;;;;;;;2.90;2.20;;;;;;;20.65;58.11;99909.08;218889;1259;140039;-72
2024/04/06 12:09:13;;;;;;;5.10;2.00;;;;;;;20.80;58.38;99908.00;217683;1260;139416;-72
2024/04/06 12:14:16;;;;;;;6.30;2.30;;;;;;;20.88;58.65;99903.90;217928;1260;139794;-72
2024/04/06 12:19:18;;;;;;;5.30;2.10;;;;;;;20.88;58.39;99900.11;217337;1261;139822;-71
2024/04/06 12:24:20;;;;;;;3.40;2.20;;;;;;;21.14;58.55;99898.96;217297;1261;140190;-71
2024/04/06 12:29:22;;;;;;;5.00;2.10;;;;;;;21.43;58.17;99890.83;217469;1260;140517;-71
2024/04/06 12:34:24;;;;;;;4.30;1.90;;;;;;;21.35;57.40;99885.56;217466;1257;140339;-71
2024/04/06 12:39:27;;;;;;;2.50;1.10;;;;;;;21.06;57.20;99888.44;217231;1263;139825;-72
2024/04/06 12:44:31;;;;;;;6.10;1.90;;;;;;;20.81;56.34;99897.86;217701;1263;139068;-73
2024/04/06 12:49:34;;;;;;;3.30;1.40;;;;;;;20.62;56.21;99897.97;217404;1261;139211;-72
2024/04/06 12:54:37;;;;;;;2.10;1.80;;;;;;;20.89;56.58;99900.73;217265;1262;139744;-73
2024/04/06 12:59:40;;;;;;;1.90;1.70;;;;;;;21.13;56.20;99906.70;218026;1260;139583;-72
2024/04/06 13:04:42;;;;;;;4.50;1.90;;;;;;;21.24;55.77;99911.98;217763;1262;139249;-72
2024/04/06 13:09:53;;;;;;;1.20;1.20;;;;;;;20.98;55.15;99909.63;217178;1262;139501;-73
2024/04/06 13:14:58;;;;;;;1.50;1.40;;;;;;;20.87;55.86;99907.48;217794;1259;139995;-71
2024/04/06 13:25:20;;;;;;;5.90;1.80;;;;;;;20.99;55.96;99912.80;217593;1257;139581;-72
2024/04/06 13:30:23;;;;;;;3.70;2.20;;;;;;;20.95;55.84;99913.26;217955;1260;139504;-72
2024/04/06 13:35:30;;;;;;;7.40;1.80;;;;;;;20.89;55.52;99907.52;217297;1257;140588;-73
2024/04/06 13:40:33;;;;;;;3.30;2.30;;;;;;;20.84;55.95;99909.75;218042;1257;140008;-73
2024/04/06 13:45:35;;;;;;;6.50;2.00;;;;;;;20.80;55.99;99914.83;217435;1260;140752;-72
2024/04/06 13:50:38;;;;;;;8.00;2.60;;;;;;;20.78;55.92;99916.66;218345;1260;140592;-72
2024/04/06 13:55:40;;;;;;;5.70;1.80;;;;;;;20.65;55.53;99916.88;217358;1260;141100;-72
2024/04/06 14:00:44;;;;;;;4.00;1.80;;;;;;;20.49;55.24;99912.70;217336;1260;140477;-73
2024/04/06 14:05:48;;;;;;;3.60;2.20;;;;;;;20.44;55.13;99915.92;218001;1259;140215;-72
2024/04/06 14:10:50;;;;;;;1.50;1.40;;;;;;;20.45;55.13;99909.05;217429;1259;139482;-72
2024/04/06 14:15:54;;;;;;;2.00;1.60;;;;;;;20.51;55.38;99916.23;217709;1257;140781;-72
2024/04/06 14:20:57;;;;;;;2.30;2.10;;;;;;;20.59;55.13;99920.65;217418;1257;140883;-72
2024/04/06 14:26:00;;;;;;;4.60;1.60;;;;;;;20.68;54.99;99918.52;217376;1259;138842;-71
2024/04/06 14:31:03;;;;;;;1.80;1.50;;;;;;;20.77;55.05;99916.95;218734;1261;139493;-71
2024/04/06 14:36:06;;;;;;;2.20;1.60;;;;;;;20.78;54.88;99915.29;217188;1262;139494;-71
2024/04/06 14:41:08;;;;;;;5.70;1.70;;;;;;;20.59;54.58;99914.52;217417;1262;141985;-71
2024/04/06 14:46:11;;;;;;;2.40;1.60;;;;;;;20.31;54.21;99920.72;217274;1262;139339;-71
2024/04/06 14:51:20;;;;;;;5.90;1.70;;;;;;;20.06;54.09;99918.58;217013;1260;143768;-73
2024/04/06 14:56:23;;;;;;;3.60;1.90;;;;;;;20.03;54.26;99915.21;217715;1259;139942;-75
2024/04/06 15:01:29;;;;;;;4.80;1.30;;;;;;;20.04;54.17;99915.48;217440;1262;139600;-74
2024/04/06 15:06:38;;;;;;;3.70;1.90;;;;;;;19.95;54.24;99918.41;217632;1259;139083;-75
2024/04/06 15:11:40;;;;;;;2.50;1.80;;;;;;;19.76;54.23;99927.67;217259;1261;140262;-71
2024/04/06 15:16:46;;;;;;;1.40;1.40;;;;;;;19.61;54.32;99926.77;217192;1260;139603;-77
2024/04/06 15:21:57;;;;;;;2.30;1.90;;;;;;;19.52;54.29;99925.92;217064;1261;139727;-74
2024/04/06 15:27:13;;;;;;;2.60;2.40;;;;;;;19.60;54.40;99918.77;217946;1262;139588;-74
2024/04/06 15:32:18;;;;;;;5.10;1.70;;;;;;;19.68;54.57;99916.83;216970;1264;139095;-74
2024/04/06 15:37:23;;;;;;;1.60;1.50;;;;;;;19.73;54.92;99919.25;217260;1261;140124;-73
2024/04/06 15:42:29;;;;;;;1.60;1.50;;;;;;;19.72;54.86;99931.06;217313;1261;140163;-76
2024/04/06 15:47:38;;;;;;;2.60;1.40;;;;;;;19.59;54.88;99934.47;217507;1259;138471;-75
2024/04/06 15:52:41;;;;;;;2.30;1.60;;;;;;;19.51;55.21;99930.58;217744;1261;139501;-76
2024/04/06 15:57:46;;;;;;;1.90;1.80;;;;;;;19.43;55.14;99935.06;218024;1259;141622;-75
2024/04/06 16:02:51;;;;;;;1.90;1.60;;;;;;;19.38;55.36;99931.66;217962;1259;140482;-77
2024/04/06 16:07:55;;;;;;;2.70;1.70;;;;;;;19.35;55.67;99936.08;217180;1262;139344;-75
2024/04/06 16:13:01;;;;;;;4.40;1.50;;;;;;;19.32;55.72;99938.86;218259;1259;139823;-74
2024/04/06 16:18:22;;;;;;;3.30;1.80;;;;;;;19.27;55.73;99940.70;217317;1259;139774;-76
2024/04/06 16:23:37;;;;;;;2.10;2.00;;;;;;;19.18;55.81;99942.06;217449;1260;138912;-76
2024/04/06 16:28:49;;;;;;;3.60;2.20;;;;;;;19.07;55.92;99948.20;217242;1259;139042;-75
2024/04/06 16:34:01;;;;;;;2.20;1.90;;;;;;;18.93;56.08;99947.48;217551;1259;139012;-76
2024/04/06 16:39:11;;;;;;;2.30;1.60;;;;;;;18.72;56.02;99946.48;217359;1261;139813;-75
2024/04/06 16:44:45;;;;;;;3.50;1.20;;;;;;;18.51;56.39;99957.42;217666;1260;138645;-76
2024/04/06 16:49:57;;;;;;;9.00;1.90;;;;;;;18.28;56.93;99970.59;217510;1260;139340;-76
2024/04/06 16:55:06;;;;;;;1.80;1.40;;;;;;;18.06;57.40;99979.23;217533;1259;139192;-76
2024/04/06 17:00:15;;;;;;;5.30;1.80;;;;;;;17.83;57.92;99977.84;215674;1258;3605475;-73
2024/04/06 17:05:17;;;;;;;2.30;2.10;;;;;;;17.61;58.36;99979.21;217428;1261;140582;-73
2024/04/06 17:10:23;;;;;;;4.60;1.70;;;;;;;17.38;59.16;99974.52;217813;1259;139071;-73
2024/04/06 17:15:25;;;;;;;4.60;1.80;;;;;;;17.14;59.70;99976.02;217903;1259;139828;-70
2024/04/06 17:20:28;;;;;;;3.50;2.00;;;;;;;16.88;60.33;99974.11;218569;1259;140088;-74
2024/04/06 17:25:41;;;;;;;2.20;1.60;;;;;;;16.62;60.55;99970.02;217933;1259;140556;-72
2024/04/06 17:30:46;;;;;;;3.60;2.00;;;;;;;16.30;60.92;99970.02;218021;1257;139115;-75
2024/04/06 18:17:23;;;;;;;9.60;6.20;;;;;;;14.62;65.07;100008.86;214046;1295;636286;-75
2024/04/06 18:22:24;;;;;;;10.00;7.00;;;;;;;14.41;65.41;100015.80;217074;1263;139364;-71
2024/04/06 18:27:26;;;;;;;21.00;11.30;;;;;;;14.25;65.96;100022.16;216675;1267;231753;-73
2024/04/06 18:32:28;;;;;;;24.30;12.70;;;;;;;14.10;66.22;100028.46;217272;1262;139819;-74
2024/04/06 18:37:34;;;;;;;27.50;14.80;;;;;;;13.96;66.73;100031.69;217683;1261;140563;-72
2024/04/06 18:42:41;;;;;;;36.20;14.40;;;;;;;13.76;66.88;100030.10;217383;1260;140728;-74
2024/04/06 18:47:47;;;;;;;15.70;10.60;;;;;;;13.58;67.50;100031.41;217176;1261;139799;-72
2024/04/06 18:52:52;;;;;;;8.50;5.00;;;;;;;13.31;67.50;100026.04;217727;1260;139409;-71
2024/04/06 18:58:03;;;;;;;8.40;4.20;;;;;;;13.04;68.19;100030.84;217694;1260;139590;-73
2024/04/06 19:03:18;;;;;;;7.20;4.70;;;;;;;12.91;68.47;100041.16;218286;1259;140825;-74
2024/04/06 19:08:20;;;;;;;5.90;4.80;;;;;;;12.75;68.95;100042.45;217366;1259;140444;-70
2024/04/06 19:13:27;;;;;;;6.80;5.00;;;;;;;12.60;69.19;100047.42;217419;1262;140900;-74
2024/04/06 19:18:28;;;;;;;8.60;4.90;;;;;;;12.48;69.59;100044.70;217777;1261;142103;-73
2024/04/06 19:23:31;;;;;;;13.20;5.50;;;;;;;12.32;70.20;100047.02;217470;1260;139112;-71
2024/04/06 19:28:34;;;;;;;10.50;6.20;;;;;;;12.28;70.48;100046.34;218445;1260;207862;-73
2024/04/06 19:33:36;;;;;;;11.20;6.80;;;;;;;12.20;70.58;100049.84;219127;1261;143279;-72
2024/04/06 19:38:38;;;;;;;24.20;15.40;;;;;;;12.16;71.23;100042.55;217972;1260;139800;-72
2024/04/06 19:43:40;;;;;;;23.10;12.80;;;;;;;12.14;71.69;100036.63;217379;1260;140184;-71
2024/04/06 19:48:42;;;;;;;20.80;13.30;;;;;;;12.02;71.33;100031.10;218022;1263;139647;-71
2024/04/06 19:53:45;;;;;;;19.60;12.30;;;;;;;11.77;71.59;100034.89;217152;1264;140259;-71
2024/04/06 19:58:47;;;;;;;20.30;14.10;;;;;;;11.56;72.25;100032.89;217607;1260;139943;-73
2024/04/06 20:03:52;;;;;;;18.80;11.10;;;;;;;11.52;72.66;100035.40;217384;1260;139521;-72
2024/04/06 20:09:15;;;;;;;18.50;11.40;;;;;;;11.44;73.11;100031.17;218032;1263;139673;-71
2024/04/06 20:14:19;;;;;;;22.70;15.30;;;;;;;11.30;73.28;100024.61;217575;1262;139421;-72
2024/04/06 20:19:21;;;;;;;23.90;16.10;;;;;;;11.24;73.90;100025.38;217596;1259;140721;-71
2024/04/06 20:29:43;;;;;;;20.30;12.20;;;;;;;11.27;74.44;100024.23;217215;1262;139711;-72
2024/04/06 20:34:55;;;;;;;19.70;10.60;;;;;;;11.11;74.17;100032.69;217667;1260;140060;-70
2024/04/06 20:40:12;;;;;;;25.50;14.80;;;;;;;10.95;74.43;100042.36;217488;1257;141378;-72
2024/04/06 20:45:15;;;;;;;22.10;13.50;;;;;;;10.93;74.95;100051.33;217871;1263;140041;-72
2024/04/06 20:50:21;;;;;;;24.00;13.50;;;;;;;10.82;74.90;100049.12;218297;1254;139875;-71
2024/04/06 20:55:23;;;;;;;18.20;12.90;;;;;;;10.79;75.47;100049.70;218767;1256;139948;-71
2024/04/06 21:00:33;;;;;;;18.20;12.90;;;;;;;10.75;75.70;100050.21;217986;1257;143775;-70
2024/04/06 21:05:38;;;;;;;14.10;11.50;;;;;;;10.75;75.93;100053.64;217931;1259;140952;-72
2024/04/06 21:10:41;;;;;;;18.70;12.60;;;;;;;10.74;75.98;100057.60;218365;1257;141206;-71
2024/04/06 21:15:45;;;;;;;22.50;14.60;;;;;;;10.70;76.19;100061.98;218171;1254;139736;-74
2024/04/06 21:20:51;;;;;;;16.90;12.80;;;;;;;10.66;76.16;100080.30;218122;1254;141505;-72
2024/04/06 21:25:52;;;;;;;29.10;14.90;;;;;;;10.64;76.48;100089.71;218247;1256;140183;-71
2024/04/06 21:30:59;;;;;;;33.80;21.40;;;;;;;10.55;76.60;100086.31;218994;1257;141276;-72
2024/04/06 21:36:05;;;;;;;31.70;20.50;;;;;;;10.52;76.76;100085.81;218867;1254;140495;-73
2024/04/06 21:41:21;;;;;;;24.70;16.50;;;;;;;10.46;76.63;100082.89;218430;1254;139422;-71
2024/04/06 21:46:24;;;;;;;32.80;19.70;;;;;;;10.36;76.75;100088.85;217875;1260;140222;-71
2024/04/06 21:51:27;;;;;;;25.60;16.60;;;;;;;10.27;77.13;100090.37;217942;1254;141430;-73
2024/04/06 21:56:29;;;;;;;27.30;16.00;;;;;;;10.27;77.67;100089.55;218207;1254;140184;-72
2024/04/06 22:01:30;;;;;;;28.90;18.00;;;;;;;10.27;77.59;100089.30;218112;1254;142012;-69
2024/04/06 22:06:32;;;;;;;30.30;19.70;;;;;;;10.24;77.83;100083.47;218116;1254;140397;-69
2024/04/06 22:11:34;;;;;;;57.20;26.50;;;;;;;10.22;78.17;100091.98;218289;1254;140394;-71
2024/04/06 22:16:35;;;;;;;37.50;21.20;;;;;;;10.18;78.12;100091.35;218139;1257;140810;-69
2024/04/06 22:21:36;;;;;;;29.30;19.70;;;;;;;10.05;77.84;100097.10;219005;1254;140060;-68
2024/04/06 22:26:39;;;;;;;36.50;21.30;;;;;;;9.92;78.23;100090.38;218161;1254;141758;-71
2024/04/06 22:31:41;;;;;;;34.70;21.10;;;;;;;9.88;78.83;100095.65;218339;1253;140592;-68
2024/04/06 22:36:43;;;;;;;30.50;20.30;;;;;;;9.86;78.72;100099.23;219098;1256;139727;-69
2024/04/06 22:41:44;;;;;;;40.10;23.70;;;;;;;9.73;78.59;100096.02;218712;1257;140088;-70
2024/04/06 22:46:47;;;;;;;25.10;19.00;;;;;;;9.64;78.93;100085.99;218730;1253;139639;-71
2024/04/06 22:51:52;;;;;;;37.70;17.80;;;;;;;9.54;79.23;100081.82;218123;1254;139864;-68
2024/04/06 22:56:59;;;;;;;25.50;18.60;;;;;;;9.55;79.67;100088.73;218031;1254;139788;-69
2024/04/06 23:02:08;;;;;;;34.00;22.90;;;;;;;9.54;79.62;100090.66;218271;1255;140041;-68
2024/04/06 23:07:10;;;;;;;24.40;19.90;;;;;;;9.53;79.69;100098.83;218554;1254;140642;-69
2024/04/06 23:12:12;;;;;;;30.40;19.20;;;;;;;9.48;79.55;100109.39;218390;1254;140849;-69
2024/04/06 23:17:14;;;;;;;32.60;21.30;;;;;;;9.42;79.66;100109.09;218392;1254;140821;-68
2024/04/06 23:22:16;;;;;;;21.10;16.60;;;;;;;9.31;79.53;100109.33;217920;1254;139744;-69
2024/04/06 23:27:18;;;;;;;28.60;19.00;;;;;;;9.23;80.09;100105.59;218648;1254;140650;-68
2024/04/06 23:32:20;;;;;;;25.10;18.40;;;;;;;9.27;80.67;100106.33;218246;1253;140415;-69
2024/04/06 23:37:22;;;;;;;23.00;18.00;;;;;;;9.27;80.23;100113.41;218187;1253;140618;-68
2024/04/06 23:42:24;;;;;;;36.50;18.20;;;;;;;9.18;80.39;100110.75;218257;1254;139986;-69
2024/04/06 23:47:26;;;;;;;31.30;18.40;;;;;;;9.12;80.28;100110.19;218481;1254;139833;-69
2024/04/06 23:52:28;;;;;;;33.60;22.40;;;;;;;9.06;80.98;100111.33;217887;1258;140351;-69
2024/04/06 23:57:32;;;;;;;26.50;18.40;;;;;;;9.06;80.94;100108.47;218122;1254;140399;-69
